sensor_id;sensor_type;location;lat;lon;timestamp;P1;durP1;ratioP1;P2;durP2;ratioP2
11681;SDS011;5897;42.640;23.310;2024-01-11T00:01:35;42.50;;;25.63;;
11681;SDS011;5897;42.640;23.310;2024-01-11T00:04:01;35.47;;;21.00;;
11681;SDS011;5897;42.640;23.310;2024-01-11T00:06:28;34.70;;;21.10;;
11681;SDS011;5897;42.640;23.310;2024-01-11T00:08:55;29.73;;;19.33;;
11681;SDS011;5897;42.640;23.310;2024-01-11T00:11:21;26.37;;;16.50;;
11681;SDS011;5897;42.640;23.310;2024-01-11T00:13:48;24.57;;;16.07;;
11681;SDS011;5897;42.640;23.310;2024-01-11T00:16:14;24.57;;;15.63;;
11681;SDS011;5897;42.640;23.310;2024-01-11T00:18:42;23.63;;;15.83;;
11681;SDS011;5897;42.640;23.310;2024-01-11T00:21:10;19.30;;;12.37;;
11681;SDS011;5897;42.640;23.310;2024-01-11T00:23:36;18.03;;;12.43;;
11681;SDS011;5897;42.640;23.310;2024-01-11T00:26:03;17.60;;;12.47;;
11681;SDS011;5897;42.640;23.310;2024-01-11T00:28:30;16.43;;;12.27;;
11681;SDS011;5897;42.640;23.310;2024-01-11T00:30:57;48.93;;;25.53;;
11681;SDS011;5897;42.640;23.310;2024-01-11T00:33:23;56.67;;;27.00;;
11681;SDS011;5897;42.640;23.310;2024-01-11T00:35:51;81.00;;;36.10;;
11681;SDS011;5897;42.640;23.310;2024-01-11T00:38:18;39.87;;;21.63;;
11681;SDS011;5897;42.640;23.310;2024-01-11T00:40:44;42.70;;;22.87;;
11681;SDS011;5897;42.640;23.310;2024-01-11T00:43:11;28.70;;;19.00;;
11681;SDS011;5897;42.640;23.310;2024-01-11T00:45:38;32.23;;;20.40;;
11681;SDS011;5897;42.640;23.310;2024-01-11T00:48:04;40.63;;;23.83;;
11681;SDS011;5897;42.640;23.310;2024-01-11T00:50:31;40.10;;;24.17;;
11681;SDS011;5897;42.640;23.310;2024-01-11T00:52:59;44.87;;;26.77;;
11681;SDS011;5897;42.640;23.310;2024-01-11T00:55:26;40.93;;;24.77;;
11681;SDS011;5897;42.640;23.310;2024-01-11T00:57:52;39.53;;;23.47;;
11681;SDS011;5897;42.640;23.310;2024-01-11T01:00:19;38.23;;;21.17;;
11681;SDS011;5897;42.640;23.310;2024-01-11T01:02:46;33.03;;;20.47;;
11681;SDS011;5897;42.640;23.310;2024-01-11T01:05:12;35.70;;;21.23;;
11681;SDS011;5897;42.640;23.310;2024-01-11T01:07:39;39.10;;;22.57;;
11681;SDS011;5897;42.640;23.310;2024-01-11T01:10:08;36.37;;;23.03;;
11681;SDS011;5897;42.640;23.310;2024-01-11T01:12:35;28.53;;;19.20;;
11681;SDS011;5897;42.640;23.310;2024-01-11T01:15:01;33.90;;;19.50;;
11681;SDS011;5897;42.640;23.310;2024-01-11T01:17:28;32.40;;;19.70;;
11681;SDS011;5897;42.640;23.310;2024-01-11T01:19:55;29.83;;;18.33;;
11681;SDS011;5897;42.640;23.310;2024-01-11T01:22:22;27.50;;;15.80;;
11681;SDS011;5897;42.640;23.310;2024-01-11T01:24:49;26.83;;;16.57;;
11681;SDS011;5897;42.640;23.310;2024-01-11T01:27:17;35.97;;;19.57;;
11681;SDS011;5897;42.640;23.310;2024-01-11T01:29:43;38.37;;;19.53;;
11681;SDS011;5897;42.640;23.310;2024-01-11T01:32:10;39.73;;;20.93;;
11681;SDS011;5897;42.640;23.310;2024-01-11T01:34:37;44.33;;;20.90;;
11681;SDS011;5897;42.640;23.310;2024-01-11T01:37:03;45.03;;;21.33;;
11681;SDS011;5897;42.640;23.310;2024-01-11T01:39:31;49.80;;;21.70;;
11681;SDS011;5897;42.640;23.310;2024-01-11T01:41:57;45.83;;;21.33;;
11681;SDS011;5897;42.640;23.310;2024-01-11T01:44:25;39.50;;;17.97;;
11681;SDS011;5897;42.640;23.310;2024-01-11T01:46:52;38.63;;;18.87;;
11681;SDS011;5897;42.640;23.310;2024-01-11T01:49:19;33.30;;;17.40;;
11681;SDS011;5897;42.640;23.310;2024-01-11T01:51:47;33.80;;;15.47;;
11681;SDS011;5897;42.640;23.310;2024-01-11T01:54:14;40.07;;;17.57;;
11681;SDS011;5897;42.640;23.310;2024-01-11T01:56:42;38.67;;;16.77;;
11681;SDS011;5897;42.640;23.310;2024-01-11T01:59:08;44.93;;;16.57;;
11681;SDS011;5897;42.640;23.310;2024-01-11T02:01:37;38.80;;;15.97;;
11681;SDS011;5897;42.640;23.310;2024-01-11T02:04:05;39.67;;;16.27;;
11681;SDS011;5897;42.640;23.310;2024-01-11T02:06:32;44.37;;;18.27;;
11681;SDS011;5897;42.640;23.310;2024-01-11T02:09:00;43.43;;;18.03;;
11681;SDS011;5897;42.640;23.310;2024-01-11T02:11:28;45.87;;;19.33;;
11681;SDS011;5897;42.640;23.310;2024-01-11T02:13:55;46.03;;;19.87;;
11681;SDS011;5897;42.640;23.310;2024-01-11T02:16:22;51.73;;;20.30;;
11681;SDS011;5897;42.640;23.310;2024-01-11T02:18:50;44.37;;;19.13;;
11681;SDS011;5897;42.640;23.310;2024-01-11T02:21:17;44.30;;;18.33;;
11681;SDS011;5897;42.640;23.310;2024-01-11T02:23:44;39.37;;;16.13;;
11681;SDS011;5897;42.640;23.310;2024-01-11T02:26:20;28.13;;;14.87;;
11681;SDS011;5897;42.640;23.310;2024-01-11T02:28:47;39.33;;;16.07;;
11681;SDS011;5897;42.640;23.310;2024-01-11T02:31:14;24.90;;;13.47;;
11681;SDS011;5897;42.640;23.310;2024-01-11T02:33:41;21.23;;;12.27;;
11681;SDS011;5897;42.640;23.310;2024-01-11T02:36:08;22.20;;;13.47;;
11681;SDS011;5897;42.640;23.310;2024-01-11T02:38:35;25.33;;;13.53;;
11681;SDS011;5897;42.640;23.310;2024-01-11T02:41:04;21.30;;;13.67;;
11681;SDS011;5897;42.640;23.310;2024-01-11T02:43:31;19.93;;;13.23;;
11681;SDS011;5897;42.640;23.310;2024-01-11T02:45:59;25.27;;;15.07;;
11681;SDS011;5897;42.640;23.310;2024-01-11T02:48:27;23.43;;;15.47;;
11681;SDS011;5897;42.640;23.310;2024-01-11T02:50:54;27.30;;;15.37;;
11681;SDS011;5897;42.640;23.310;2024-01-11T02:53:21;34.87;;;19.13;;
11681;SDS011;5897;42.640;23.310;2024-01-11T02:55:47;31.43;;;16.93;;
11681;SDS011;5897;42.640;23.310;2024-01-11T02:58:15;26.87;;;14.90;;
11681;SDS011;5897;42.640;23.310;2024-01-11T03:00:42;29.20;;;15.70;;
11681;SDS011;5897;42.640;23.310;2024-01-11T03:03:08;24.57;;;14.57;;
11681;SDS011;5897;42.640;23.310;2024-01-11T03:05:35;27.00;;;15.40;;
11681;SDS011;5897;42.640;23.310;2024-01-11T03:08:02;28.30;;;17.03;;
11681;SDS011;5897;42.640;23.310;2024-01-11T03:10:29;25.40;;;14.37;;
11681;SDS011;5897;42.640;23.310;2024-01-11T03:12:56;22.37;;;14.47;;
11681;SDS011;5897;42.640;23.310;2024-01-11T03:15:25;20.23;;;14.20;;
11681;SDS011;5897;42.640;23.310;2024-01-11T03:17:52;19.87;;;12.77;;
11681;SDS011;5897;42.640;23.310;2024-01-11T03:20:18;20.03;;;12.70;;
11681;SDS011;5897;42.640;23.310;2024-01-11T03:22:49;18.57;;;12.63;;
11681;SDS011;5897;42.640;23.310;2024-01-11T03:25:16;18.87;;;13.20;;
11681;SDS011;5897;42.640;23.310;2024-01-11T03:27:43;20.13;;;14.03;;
11681;SDS011;5897;42.640;23.310;2024-01-11T03:30:10;20.77;;;14.73;;
11681;SDS011;5897;42.640;23.310;2024-01-11T03:32:38;27.87;;;17.20;;
11681;SDS011;5897;42.640;23.310;2024-01-11T03:35:07;25.67;;;17.00;;
11681;SDS011;5897;42.640;23.310;2024-01-11T03:37:34;24.80;;;16.60;;
11681;SDS011;5897;42.640;23.310;2024-01-11T03:40:00;23.63;;;16.20;;
11681;SDS011;5897;42.640;23.310;2024-01-11T03:42:29;24.87;;;16.00;;
11681;SDS011;5897;42.640;23.310;2024-01-11T03:44:55;23.77;;;15.33;;
11681;SDS011;5897;42.640;23.310;2024-01-11T03:47:22;24.57;;;17.57;;
11681;SDS011;5897;42.640;23.310;2024-01-11T03:49:50;21.87;;;15.23;;
11681;SDS011;5897;42.640;23.310;2024-01-11T03:52:17;22.87;;;15.10;;
11681;SDS011;5897;42.640;23.310;2024-01-11T03:54:44;24.33;;;15.63;;
11681;SDS011;5897;42.640;23.310;2024-01-11T03:57:10;23.77;;;15.07;;
11681;SDS011;5897;42.640;23.310;2024-01-11T03:59:37;23.97;;;15.03;;
11681;SDS011;5897;42.640;23.310;2024-01-11T04:02:04;21.93;;;14.33;;
11681;SDS011;5897;42.640;23.310;2024-01-11T04:04:30;24.17;;;16.93;;
11681;SDS011;5897;42.640;23.310;2024-01-11T04:06:58;24.70;;;15.53;;
11681;SDS011;5897;42.640;23.310;2024-01-11T04:09:25;23.33;;;14.47;;
11681;SDS011;5897;42.640;23.310;2024-01-11T04:11:52;25.07;;;16.17;;
11681;SDS011;5897;42.640;23.310;2024-01-11T04:14:18;24.70;;;15.90;;
11681;SDS011;5897;42.640;23.310;2024-01-11T04:16:45;25.10;;;17.23;;
11681;SDS011;5897;42.640;23.310;2024-01-11T04:19:12;25.70;;;17.47;;
11681;SDS011;5897;42.640;23.310;2024-01-11T04:21:38;26.13;;;16.63;;
11681;SDS011;5897;42.640;23.310;2024-01-11T04:24:07;28.07;;;17.93;;
11681;SDS011;5897;42.640;23.310;2024-01-11T04:26:33;25.37;;;16.10;;
11681;SDS011;5897;42.640;23.310;2024-01-11T04:29:00;25.23;;;15.17;;
11681;SDS011;5897;42.640;23.310;2024-01-11T04:31:26;23.70;;;15.50;;
11681;SDS011;5897;42.640;23.310;2024-01-11T04:33:53;24.77;;;15.67;;
11681;SDS011;5897;42.640;23.310;2024-01-11T04:36:20;26.60;;;15.87;;
11681;SDS011;5897;42.640;23.310;2024-01-11T04:38:46;28.27;;;16.90;;
11681;SDS011;5897;42.640;23.310;2024-01-11T04:41:14;25.40;;;16.17;;
11681;SDS011;5897;42.640;23.310;2024-01-11T04:43:41;24.67;;;15.53;;
11681;SDS011;5897;42.640;23.310;2024-01-11T04:46:12;24.33;;;14.93;;
11681;SDS011;5897;42.640;23.310;2024-01-11T04:48:40;22.77;;;14.37;;
11681;SDS011;5897;42.640;23.310;2024-01-11T04:51:07;22.40;;;14.77;;
11681;SDS011;5897;42.640;23.310;2024-01-11T04:53:35;21.07;;;13.63;;
11681;SDS011;5897;42.640;23.310;2024-01-11T04:56:03;20.57;;;13.93;;
11681;SDS011;5897;42.640;23.310;2024-01-11T04:58:31;23.47;;;15.80;;
11681;SDS011;5897;42.640;23.310;2024-01-11T05:00:58;28.87;;;18.10;;
11681;SDS011;5897;42.640;23.310;2024-01-11T05:03:25;29.37;;;20.13;;
11681;SDS011;5897;42.640;23.310;2024-01-11T05:05:51;29.33;;;19.03;;
11681;SDS011;5897;42.640;23.310;2024-01-11T05:08:18;28.47;;;19.40;;
11681;SDS011;5897;42.640;23.310;2024-01-11T05:10:45;33.70;;;21.40;;
11681;SDS011;5897;42.640;23.310;2024-01-11T05:13:11;33.60;;;21.37;;
11681;SDS011;5897;42.640;23.310;2024-01-11T05:15:39;35.10;;;21.13;;
11681;SDS011;5897;42.640;23.310;2024-01-11T05:18:06;30.13;;;19.73;;
11681;SDS011;5897;42.640;23.310;2024-01-11T05:20:33;31.80;;;19.97;;
11681;SDS011;5897;42.640;23.310;2024-01-11T05:22:59;27.23;;;18.97;;
11681;SDS011;5897;42.640;23.310;2024-01-11T05:25:26;29.13;;;19.17;;
11681;SDS011;5897;42.640;23.310;2024-01-11T05:27:53;31.83;;;20.47;;
11681;SDS011;5897;42.640;23.310;2024-01-11T05:30:20;36.23;;;21.17;;
11681;SDS011;5897;42.640;23.310;2024-01-11T05:32:48;38.10;;;23.23;;
11681;SDS011;5897;42.640;23.310;2024-01-11T05:35:14;36.63;;;22.63;;
11681;SDS011;5897;42.640;23.310;2024-01-11T05:37:43;33.77;;;21.37;;
11681;SDS011;5897;42.640;23.310;2024-01-11T05:40:10;30.00;;;20.47;;
11681;SDS011;5897;42.640;23.310;2024-01-11T05:42:37;30.73;;;20.00;;
11681;SDS011;5897;42.640;23.310;2024-01-11T05:45:04;31.50;;;19.00;;
11681;SDS011;5897;42.640;23.310;2024-01-11T05:47:31;23.30;;;16.63;;
11681;SDS011;5897;42.640;23.310;2024-01-11T05:49:59;24.70;;;16.53;;
11681;SDS011;5897;42.640;23.310;2024-01-11T05:52:26;20.37;;;15.03;;
11681;SDS011;5897;42.640;23.310;2024-01-11T05:54:52;25.50;;;16.57;;
11681;SDS011;5897;42.640;23.310;2024-01-11T05:57:19;24.67;;;15.90;;
11681;SDS011;5897;42.640;23.310;2024-01-11T05:59:46;23.87;;;16.40;;
11681;SDS011;5897;42.640;23.310;2024-01-11T06:02:12;23.00;;;16.37;;
11681;SDS011;5897;42.640;23.310;2024-01-11T06:04:39;26.33;;;17.37;;
11681;SDS011;5897;42.640;23.310;2024-01-11T06:07:07;25.23;;;16.67;;
11681;SDS011;5897;42.640;23.310;2024-01-11T06:09:34;163.60;;;34.03;;
11681;SDS011;5897;42.640;23.310;2024-01-11T06:12:00;27.97;;;17.77;;
11681;SDS011;5897;42.640;23.310;2024-01-11T06:14:27;26.67;;;17.50;;
11681;SDS011;5897;42.640;23.310;2024-01-11T06:16:53;24.30;;;17.10;;
11681;SDS011;5897;42.640;23.310;2024-01-11T06:19:20;26.83;;;16.63;;
11681;SDS011;5897;42.640;23.310;2024-01-11T06:21:49;26.13;;;18.20;;
11681;SDS011;5897;42.640;23.310;2024-01-11T06:24:17;25.37;;;17.47;;
11681;SDS011;5897;42.640;23.310;2024-01-11T06:26:44;24.80;;;17.27;;
11681;SDS011;5897;42.640;23.310;2024-01-11T06:29:10;28.07;;;18.30;;
11681;SDS011;5897;42.640;23.310;2024-01-11T06:31:37;27.67;;;18.97;;
11681;SDS011;5897;42.640;23.310;2024-01-11T06:34:04;28.43;;;17.57;;
11681;SDS011;5897;42.640;23.310;2024-01-11T06:36:30;29.00;;;18.30;;
11681;SDS011;5897;42.640;23.310;2024-01-11T06:38:57;26.60;;;18.30;;
11681;SDS011;5897;42.640;23.310;2024-01-11T06:41:25;24.57;;;17.47;;
11681;SDS011;5897;42.640;23.310;2024-01-11T06:43:51;28.17;;;17.67;;
11681;SDS011;5897;42.640;23.310;2024-01-11T06:46:19;28.43;;;18.67;;
11681;SDS011;5897;42.640;23.310;2024-01-11T06:48:47;41.13;;;23.73;;
11681;SDS011;5897;42.640;23.310;2024-01-11T06:51:14;44.33;;;25.83;;
11681;SDS011;5897;42.640;23.310;2024-01-11T06:53:41;42.17;;;25.27;;
11681;SDS011;5897;42.640;23.310;2024-01-11T06:56:14;36.43;;;23.03;;
11681;SDS011;5897;42.640;23.310;2024-01-11T06:58:43;31.93;;;22.30;;
11681;SDS011;5897;42.640;23.310;2024-01-11T07:01:10;34.97;;;22.83;;
11681;SDS011;5897;42.640;23.310;2024-01-11T07:03:37;38.50;;;23.10;;
11681;SDS011;5897;42.640;23.310;2024-01-11T07:06:04;38.87;;;23.77;;
11681;SDS011;5897;42.640;23.310;2024-01-11T07:08:31;35.60;;;23.17;;
11681;SDS011;5897;42.640;23.310;2024-01-11T07:10:58;33.03;;;22.83;;
11681;SDS011;5897;42.640;23.310;2024-01-11T07:13:27;32.37;;;22.17;;
11681;SDS011;5897;42.640;23.310;2024-01-11T07:15:55;32.27;;;21.97;;
11681;SDS011;5897;42.640;23.310;2024-01-11T07:18:22;33.30;;;22.13;;
11681;SDS011;5897;42.640;23.310;2024-01-11T07:20:49;31.03;;;21.13;;
11681;SDS011;5897;42.640;23.310;2024-01-11T07:23:16;33.00;;;20.97;;
11681;SDS011;5897;42.640;23.310;2024-01-11T07:25:43;32.53;;;22.13;;
11681;SDS011;5897;42.640;23.310;2024-01-11T07:28:10;29.77;;;20.53;;
11681;SDS011;5897;42.640;23.310;2024-01-11T07:30:36;30.57;;;21.27;;
11681;SDS011;5897;42.640;23.310;2024-01-11T07:33:05;31.90;;;21.70;;
11681;SDS011;5897;42.640;23.310;2024-01-11T07:35:31;32.13;;;22.33;;
11681;SDS011;5897;42.640;23.310;2024-01-11T07:37:58;31.20;;;20.70;;
11681;SDS011;5897;42.640;23.310;2024-01-11T07:40:25;33.30;;;23.77;;
11681;SDS011;5897;42.640;23.310;2024-01-11T07:42:52;34.23;;;21.87;;
11681;SDS011;5897;42.640;23.310;2024-01-11T07:45:19;32.97;;;23.33;;
11681;SDS011;5897;42.640;23.310;2024-01-11T07:47:46;32.27;;;22.23;;
11681;SDS011;5897;42.640;23.310;2024-01-11T07:50:14;30.57;;;22.07;;
11681;SDS011;5897;42.640;23.310;2024-01-11T07:52:40;34.43;;;23.60;;
11681;SDS011;5897;42.640;23.310;2024-01-11T07:55:07;31.37;;;23.70;;
11681;SDS011;5897;42.640;23.310;2024-01-11T07:57:36;29.77;;;22.77;;
11681;SDS011;5897;42.640;23.310;2024-01-11T08:00:03;33.63;;;23.93;;
11681;SDS011;5897;42.640;23.310;2024-01-11T08:02:31;33.43;;;22.40;;
11681;SDS011;5897;42.640;23.310;2024-01-11T08:04:58;31.93;;;22.67;;
11681;SDS011;5897;42.640;23.310;2024-01-11T08:07:26;33.00;;;23.40;;
11681;SDS011;5897;42.640;23.310;2024-01-11T08:09:53;33.83;;;23.30;;
11681;SDS011;5897;42.640;23.310;2024-01-11T08:12:19;32.60;;;22.90;;
11681;SDS011;5897;42.640;23.310;2024-01-11T08:14:46;30.63;;;23.27;;
11681;SDS011;5897;42.640;23.310;2024-01-11T08:17:13;31.43;;;22.77;;
11681;SDS011;5897;42.640;23.310;2024-01-11T08:19:40;32.60;;;22.60;;
11681;SDS011;5897;42.640;23.310;2024-01-11T08:22:09;34.83;;;22.87;;
11681;SDS011;5897;42.640;23.310;2024-01-11T08:24:37;33.63;;;22.23;;
11681;SDS011;5897;42.640;23.310;2024-01-11T08:27:04;30.67;;;22.87;;
11681;SDS011;5897;42.640;23.310;2024-01-11T08:29:31;34.13;;;23.57;;
11681;SDS011;5897;42.640;23.310;2024-01-11T08:31:58;30.63;;;23.27;;
11681;SDS011;5897;42.640;23.310;2024-01-11T08:34:26;33.50;;;22.83;;
11681;SDS011;5897;42.640;23.310;2024-01-11T08:36:53;31.90;;;23.90;;
11681;SDS011;5897;42.640;23.310;2024-01-11T08:39:19;33.60;;;25.20;;
11681;SDS011;5897;42.640;23.310;2024-01-11T08:41:47;35.70;;;24.03;;
11681;SDS011;5897;42.640;23.310;2024-01-11T08:44:14;37.77;;;26.23;;
11681;SDS011;5897;42.640;23.310;2024-01-11T08:46:41;35.07;;;25.37;;
11681;SDS011;5897;42.640;23.310;2024-01-11T08:49:09;35.90;;;25.65;;
11681;SDS011;5897;42.640;23.310;2024-01-11T08:51:35;35.92;;;24.90;;
11681;SDS011;5897;42.640;23.310;2024-01-11T08:54:02;32.13;;;23.57;;
11681;SDS011;5897;42.640;23.310;2024-01-11T08:56:29;40.17;;;26.67;;
11681;SDS011;5897;42.640;23.310;2024-01-11T08:58:57;39.55;;;27.90;;
11681;SDS011;5897;42.640;23.310;2024-01-11T09:01:24;38.10;;;27.40;;
11681;SDS011;5897;42.640;23.310;2024-01-11T09:03:50;37.37;;;26.77;;
11681;SDS011;5897;42.640;23.310;2024-01-11T09:06:17;34.92;;;25.98;;
11681;SDS011;5897;42.640;23.310;2024-01-11T09:08:44;34.53;;;23.93;;
11681;SDS011;5897;42.640;23.310;2024-01-11T09:11:10;29.83;;;22.03;;
11681;SDS011;5897;42.640;23.310;2024-01-11T09:13:37;26.77;;;19.90;;
11681;SDS011;5897;42.640;23.310;2024-01-11T09:16:06;25.33;;;19.08;;
11681;SDS011;5897;42.640;23.310;2024-01-11T09:18:34;24.17;;;17.70;;
11681;SDS011;5897;42.640;23.310;2024-01-11T09:21:01;25.63;;;18.25;;
11681;SDS011;5897;42.640;23.310;2024-01-11T09:23:28;29.10;;;20.55;;
11681;SDS011;5897;42.640;23.310;2024-01-11T09:25:55;27.60;;;20.40;;
11681;SDS011;5897;42.640;23.310;2024-01-11T09:28:22;34.22;;;22.00;;
11681;SDS011;5897;42.640;23.310;2024-01-11T09:30:48;29.50;;;21.60;;
11681;SDS011;5897;42.640;23.310;2024-01-11T09:33:17;33.75;;;23.05;;
11681;SDS011;5897;42.640;23.310;2024-01-11T09:35:43;33.70;;;22.08;;
11681;SDS011;5897;42.640;23.310;2024-01-11T09:38:10;32.55;;;22.85;;
11681;SDS011;5897;42.640;23.310;2024-01-11T09:40:37;33.88;;;24.00;;
11681;SDS011;5897;42.640;23.310;2024-01-11T09:43:04;31.48;;;22.52;;
11681;SDS011;5897;42.640;23.310;2024-01-11T09:45:32;33.17;;;22.95;;
11681;SDS011;5897;42.640;23.310;2024-01-11T09:47:59;32.15;;;23.90;;
11681;SDS011;5897;42.640;23.310;2024-01-11T09:50:29;34.22;;;23.35;;
11681;SDS011;5897;42.640;23.310;2024-01-11T09:52:56;36.13;;;24.05;;
11681;SDS011;5897;42.640;23.310;2024-01-11T09:55:22;32.60;;;24.00;;
11681;SDS011;5897;42.640;23.310;2024-01-11T09:57:50;36.28;;;24.08;;
11681;SDS011;5897;42.640;23.310;2024-01-11T10:00:22;35.20;;;25.65;;
11681;SDS011;5897;42.640;23.310;2024-01-11T10:02:51;33.35;;;25.58;;
11681;SDS011;5897;42.640;23.310;2024-01-11T10:05:18;32.67;;;25.38;;
11681;SDS011;5897;42.640;23.310;2024-01-11T10:07:46;33.58;;;25.25;;
11681;SDS011;5897;42.640;23.310;2024-01-11T10:10:12;36.05;;;26.50;;
11681;SDS011;5897;42.640;23.310;2024-01-11T10:12:40;33.35;;;26.02;;
11681;SDS011;5897;42.640;23.310;2024-01-11T10:15:07;33.35;;;24.65;;
11681;SDS011;5897;42.640;23.310;2024-01-11T10:17:35;34.25;;;24.02;;
11681;SDS011;5897;42.640;23.310;2024-01-11T10:20:03;37.00;;;25.73;;
11681;SDS011;5897;42.640;23.310;2024-01-11T10:22:30;33.90;;;25.08;;
11681;SDS011;5897;42.640;23.310;2024-01-11T10:25:08;34.17;;;24.15;;
11681;SDS011;5897;42.640;23.310;2024-01-11T10:27:37;31.05;;;23.83;;
11681;SDS011;5897;42.640;23.310;2024-01-11T10:30:05;29.95;;;23.20;;
11681;SDS011;5897;42.640;23.310;2024-01-11T10:32:33;31.20;;;23.02;;
11681;SDS011;5897;42.640;23.310;2024-01-11T10:35:00;31.45;;;22.60;;
11681;SDS011;5897;42.640;23.310;2024-01-11T10:37:29;34.05;;;23.10;;
11681;SDS011;5897;42.640;23.310;2024-01-11T10:39:57;31.83;;;24.50;;
11681;SDS011;5897;42.640;23.310;2024-01-11T10:42:25;33.70;;;24.80;;
11681;SDS011;5897;42.640;23.310;2024-01-11T10:44:57;34.20;;;24.20;;
11681;SDS011;5897;42.640;23.310;2024-01-11T10:47:30;30.95;;;23.88;;
11681;SDS011;5897;42.640;23.310;2024-01-11T10:49:57;33.60;;;24.05;;
11681;SDS011;5897;42.640;23.310;2024-01-11T10:52:27;32.65;;;24.95;;
11681;SDS011;5897;42.640;23.310;2024-01-11T10:54:59;32.55;;;24.08;;
11681;SDS011;5897;42.640;23.310;2024-01-11T10:57:29;31.83;;;23.63;;
11681;SDS011;5897;42.640;23.310;2024-01-11T10:59:55;29.08;;;24.08;;
11681;SDS011;5897;42.640;23.310;2024-01-11T11:02:23;30.33;;;23.98;;
11681;SDS011;5897;42.640;23.310;2024-01-11T11:04:50;34.35;;;25.55;;
11681;SDS011;5897;42.640;23.310;2024-01-11T11:07:19;36.47;;;25.65;;
11681;SDS011;5897;42.640;23.310;2024-01-11T11:09:46;32.47;;;24.75;;
11681;SDS011;5897;42.640;23.310;2024-01-11T11:12:16;33.28;;;24.85;;
11681;SDS011;5897;42.640;23.310;2024-01-11T11:14:47;30.80;;;25.58;;
11681;SDS011;5897;42.640;23.310;2024-01-11T11:17:14;34.10;;;25.95;;
11681;SDS011;5897;42.640;23.310;2024-01-11T11:19:41;35.67;;;25.80;;
11681;SDS011;5897;42.640;23.310;2024-01-11T11:22:08;31.92;;;25.58;;
11681;SDS011;5897;42.640;23.310;2024-01-11T11:24:35;30.58;;;24.95;;
11681;SDS011;5897;42.640;23.310;2024-01-11T11:27:02;32.35;;;24.83;;
11681;SDS011;5897;42.640;23.310;2024-01-11T11:29:29;29.65;;;23.95;;
11681;SDS011;5897;42.640;23.310;2024-01-11T11:31:57;32.08;;;24.92;;
11681;SDS011;5897;42.640;23.310;2024-01-11T11:37:06;29.92;;;23.63;;
11681;SDS011;5897;42.640;23.310;2024-01-11T11:39:33;33.22;;;24.15;;
11681;SDS011;5897;42.640;23.310;2024-01-11T11:41:59;34.00;;;24.80;;
11681;SDS011;5897;42.640;23.310;2024-01-11T11:44:26;31.23;;;23.75;;
11681;SDS011;5897;42.640;23.310;2024-01-11T11:46:53;29.48;;;23.08;;
11681;SDS011;5897;42.640;23.310;2024-01-11T11:49:21;31.88;;;24.52;;
11681;SDS011;5897;42.640;23.310;2024-01-11T11:52:13;30.17;;;23.85;;
11681;SDS011;5897;42.640;23.310;2024-01-11T11:54:40;29.98;;;23.73;;
11681;SDS011;5897;42.640;23.310;2024-01-11T11:57:08;33.70;;;24.08;;
11681;SDS011;5897;42.640;23.310;2024-01-11T11:59:36;33.45;;;23.50;;
11681;SDS011;5897;42.640;23.310;2024-01-11T12:02:03;30.45;;;24.67;;
11681;SDS011;5897;42.640;23.310;2024-01-11T12:04:34;32.53;;;24.65;;
11681;SDS011;5897;42.640;23.310;2024-01-11T12:07:05;30.52;;;24.15;;
11681;SDS011;5897;42.640;23.310;2024-01-11T12:09:31;33.83;;;23.10;;
11681;SDS011;5897;42.640;23.310;2024-01-11T12:11:59;30.80;;;22.98;;
11681;SDS011;5897;42.640;23.310;2024-01-11T12:14:25;30.48;;;23.23;;
11681;SDS011;5897;42.640;23.310;2024-01-11T12:16:55;31.25;;;24.63;;
11681;SDS011;5897;42.640;23.310;2024-01-11T12:19:22;31.45;;;24.50;;
11681;SDS011;5897;42.640;23.310;2024-01-11T12:21:51;30.27;;;23.75;;
11681;SDS011;5897;42.640;23.310;2024-01-11T12:24:17;29.88;;;22.98;;
11681;SDS011;5897;42.640;23.310;2024-01-11T12:26:46;30.00;;;21.92;;
11681;SDS011;5897;42.640;23.310;2024-01-11T12:29:15;30.73;;;21.90;;
11681;SDS011;5897;42.640;23.310;2024-01-11T12:31:43;27.77;;;22.83;;
11681;SDS011;5897;42.640;23.310;2024-01-11T12:34:10;28.73;;;22.05;;
11681;SDS011;5897;42.640;23.310;2024-01-11T12:36:38;27.25;;;21.40;;
11681;SDS011;5897;42.640;23.310;2024-01-11T12:39:06;29.83;;;21.25;;
11681;SDS011;5897;42.640;23.310;2024-01-11T12:41:34;27.25;;;21.10;;
11681;SDS011;5897;42.640;23.310;2024-01-11T12:44:02;29.77;;;19.88;;
11681;SDS011;5897;42.640;23.310;2024-01-11T12:46:29;22.67;;;17.63;;
11681;SDS011;5897;42.640;23.310;2024-01-11T12:48:56;23.52;;;17.67;;
11681;SDS011;5897;42.640;23.310;2024-01-11T12:51:22;22.48;;;17.45;;
11681;SDS011;5897;42.640;23.310;2024-01-11T12:53:50;21.33;;;16.80;;
11681;SDS011;5897;42.640;23.310;2024-01-11T12:56:19;23.35;;;16.23;;
11681;SDS011;5897;42.640;23.310;2024-01-11T12:58:47;21.02;;;17.63;;
11681;SDS011;5897;42.640;23.310;2024-01-11T13:01:14;22.63;;;18.77;;
11681;SDS011;5897;42.640;23.310;2024-01-11T13:03:43;24.33;;;18.55;;
11681;SDS011;5897;42.640;23.310;2024-01-11T13:06:11;32.78;;;23.30;;
11681;SDS011;5897;42.640;23.310;2024-01-11T13:08:38;25.52;;;20.42;;
11681;SDS011;5897;42.640;23.310;2024-01-11T13:11:06;29.83;;;22.15;;
11681;SDS011;5897;42.640;23.310;2024-01-11T13:13:34;21.92;;;16.80;;
11681;SDS011;5897;42.640;23.310;2024-01-11T13:16:02;21.75;;;16.35;;
11681;SDS011;5897;42.640;23.310;2024-01-11T13:18:31;21.02;;;17.02;;
11681;SDS011;5897;42.640;23.310;2024-01-11T13:20:58;19.48;;;15.13;;
11681;SDS011;5897;42.640;23.310;2024-01-11T13:23:24;20.52;;;15.00;;
11681;SDS011;5897;42.640;23.310;2024-01-11T13:25:51;13.95;;;11.52;;
11681;SDS011;5897;42.640;23.310;2024-01-11T13:28:18;9.50;;;7.55;;
11681;SDS011;5897;42.640;23.310;2024-01-11T13:30:46;9.90;;;7.10;;
11681;SDS011;5897;42.640;23.310;2024-01-11T13:33:14;12.70;;;8.80;;
11681;SDS011;5897;42.640;23.310;2024-01-11T13:35:42;11.38;;;9.50;;
11681;SDS011;5897;42.640;23.310;2024-01-11T13:38:09;17.77;;;13.02;;
11681;SDS011;5897;42.640;23.310;2024-01-11T13:40:36;12.80;;;9.90;;
11681;SDS011;5897;42.640;23.310;2024-01-11T13:43:04;13.00;;;9.63;;
11681;SDS011;5897;42.640;23.310;2024-01-11T13:45:31;17.55;;;11.88;;
11681;SDS011;5897;42.640;23.310;2024-01-11T13:48:02;27.30;;;18.00;;
11681;SDS011;5897;42.640;23.310;2024-01-11T13:50:30;24.65;;;17.67;;
11681;SDS011;5897;42.640;23.310;2024-01-11T13:52:57;17.50;;;12.40;;
11681;SDS011;5897;42.640;23.310;2024-01-11T13:55:23;16.85;;;12.20;;
11681;SDS011;5897;42.640;23.310;2024-01-11T13:57:51;17.88;;;12.65;;
11681;SDS011;5897;42.640;23.310;2024-01-11T14:00:18;18.58;;;13.50;;
11681;SDS011;5897;42.640;23.310;2024-01-11T14:02:45;17.73;;;13.90;;
11681;SDS011;5897;42.640;23.310;2024-01-11T14:05:14;16.40;;;11.82;;
11681;SDS011;5897;42.640;23.310;2024-01-11T14:07:42;13.20;;;8.57;;
11681;SDS011;5897;42.640;23.310;2024-01-11T14:10:10;13.48;;;9.70;;
11681;SDS011;5897;42.640;23.310;2024-01-11T14:12:37;12.18;;;9.65;;
11681;SDS011;5897;42.640;23.310;2024-01-11T14:15:05;11.30;;;8.95;;
11681;SDS011;5897;42.640;23.310;2024-01-11T14:17:36;11.90;;;8.43;;
11681;SDS011;5897;42.640;23.310;2024-01-11T14:20:03;10.00;;;8.25;;
11681;SDS011;5897;42.640;23.310;2024-01-11T14:22:36;11.15;;;9.43;;
11681;SDS011;5897;42.640;23.310;2024-01-11T14:25:02;12.35;;;9.02;;